• Join FlightAware (Why Join?)
  • Login
  • US Flag 
Rudolph Flight #1: Arrived! 
05:10PM EST


 

Airport Tracker/Info


-or-


 

Live Flight TrackerFlight Track Log ✈ N682RW ✈ 2013年 06月 30日 ✈ KPIE - CYYZ

Flight Track Log - Related Links

Times and Time Zones

All times are in EDT time to prevent confusion due to time zone crossing. See the N682RW flight status page for this flight to view local times or setup timezone preferences in your user account.

Time Position Orientation Groundspeed Altitude Reporting Facility
EDT Latitude Longitude Course Direction KTS MPH feet Rate Location/Type
06:29PM 27.9000 -82.6833 190° South 222 255 500  Level Tampa TRACON
06:30PM 27.8167 -82.7000 190° South 247 284 3,700 2,580 Climbing Tampa TRACON
06:32PM 27.9392 -82.7750 332° Northwest 287 330 10,100 2,340 Climbing Jacksonville Center
06:33PM 28.0350 -82.7728 North 304 350 11,500 1,860 Climbing Jacksonville Center
06:34PM 28.1394 -82.7725 360° North 344 396 13,900 2,340 Climbing Jacksonville Center
06:35PM 28.2458 -82.7747 359° North 373 429 16,200 1,860 Climbing Jacksonville Center
06:36PM 28.3439 -82.7769 359° North 386 444 17,700 1,740 Climbing Jacksonville Center
06:37PM 28.4608 -82.7839 357° North 398 458 19,700 1,620 Climbing Jacksonville Center
06:38PM 28.5861 -82.7814 North 418 481 21,000  Climbing Jacksonville Center
06:39PM 28.7092 -82.7742 North 418 481 19,800 -540 Descending Jacksonville Center
06:40PM 28.8197 -82.7669 North 402 463 20,000 660 Climbing Jacksonville Center
06:41PM 28.9344 -82.7597 North 407 468 21,200 1,440 Climbing Jacksonville Center
06:42PM 29.0536 -82.7547 North 407 468 22,900 1,380 Climbing Jacksonville Center
06:43PM 29.1683 -82.7500 North 412 474 24,000 540 Climbing Jacksonville Center
06:44PM 29.2956 -82.7425 North 424 488 24,000  Level Jacksonville Center
06:45PM 29.4189 -82.7375 North 437 503 24,000 720 Level Jacksonville Center
06:46PM 29.5442 -82.7325 North 437 503 25,500 1,140 Climbing Jacksonville Center
06:47PM 29.6714 -82.7300 North 442 509 26,300 900 Climbing Jacksonville Center
06:48PM 29.8028 -82.7225 North 453 521 27,400 1,080 Climbing Jacksonville Center
06:49PM 29.9364 -82.7175 North 465 535 28,500 1,200 Climbing Jacksonville Center
06:51PM 30.0789 -82.7005 North  Level FlightAware Approximate
06:51PM 30.2078 -82.6978 North 481 554 31,000  Level Jacksonville Center
06:52PM 30.3458 -82.6928 North 481 554 30,900  Descending Jacksonville Center
06:53PM 30.4878 -82.6878 North 486 559 31,000  Climbing Jacksonville Center
06:54PM 30.6233 -82.6681 North 492 566 31,000  Level Jacksonville Center
06:55PM 30.7653 -82.6483 North 503 579 31,000  Level Jacksonville Center
06:56PM 30.9053 -82.6214 North 503 579 31,000 60 Level Jacksonville Center
06:57PM 31.0428 -82.5967 North 503 579 31,200 480 Climbing Jacksonville Center
06:58PM 31.1869 -82.5719 North 503 579 32,000 900 Climbing Jacksonville Center
06:59PM 31.3225 -82.5497 North 503 579 33,000 480 Climbing Jacksonville Center
07:00PM 31.4456 -82.5225 11° North 503 579 33,000  Level Jacksonville Center
07:03PM 31.8325 -82.4647 North 503 579 33,000  Level Atlanta Center
07:04PM 31.9722 -82.4425 North 498 573 33,000  Level Atlanta Center
07:05PM 32.1094 -82.4181 North 503 579 33,000  Level Atlanta Center
07:06PM 32.2636 -82.3931 North 503 579 33,000  Level Atlanta Center
07:07PM 32.3867 -82.3736 North 503 579 33,000  Level Atlanta Center
07:08PM 32.5283 -82.3536 North 508 585 33,000  Level Atlanta Center
07:09PM 32.6697 -82.3314 North 503 579 33,000  Level Atlanta Center
07:10PM 32.8072 -82.3114 North 503 579 33,000  Level Atlanta Center
07:11PM 32.9489 -82.2861 North 503 579 33,000  Level Atlanta Center
07:12PM 33.0883 -82.2636 North 503 579 33,000  Level Atlanta Center
07:13PM 33.2281 -82.2408 North 503 579 33,000  Level Atlanta Center
07:14PM 33.3675 -82.2181 North 503 579 33,000  Level Atlanta Center
07:15PM 33.5217 -82.1925 North 503 579 33,000  Level Atlanta Center
07:16PM 33.6631 -82.1694 North 503 579 33,000  Level Atlanta Center
07:17PM 33.8067 -82.1439 North 503 579 33,000  Level Atlanta Center
07:18PM 33.9483 -82.1181 North 503 579 33,000  Level Atlanta Center
07:19PM 34.0897 -82.0947 North 508 585 33,000  Level Atlanta Center
07:20PM 34.2333 -82.0689 North 513 590 33,000  Level Atlanta Center
07:21PM 34.3644 -82.0483 North 522 601 33,000  Level Atlanta Center
07:22PM 34.5039 -82.0222 North 522 601 33,000  Level Atlanta Center
07:23PM 34.6475 -81.9986 North 517 595 33,000  Level Atlanta Center
07:24PM 34.7911 -81.9725 North 524 603 33,000  Level Atlanta Center
07:25PM 34.9472 -81.9483 North 519 597 33,000  Level Atlanta Center
07:26PM 35.0886 -81.9167 10° North 514 592 33,000  Level Atlanta Center
07:27PM 35.2278 -81.8750 14° North 520 598 33,000  Level Atlanta Center
07:28PM 35.3689 -81.8356 13° North 520 598 33,000  Level Atlanta Center
07:29PM 35.4975 -81.7992 13° North 515 593 33,000  Level Atlanta Center
07:30PM 35.6408 -81.7594 13° North 521 600 33,000  Level Atlanta Center
07:31PM 35.7819 -81.7197 13° North 529 609 33,000  Level Atlanta Center
07:32PM 35.9250 -81.6744 14° North 523 602 33,000  Level Atlanta Center
07:33PM 36.0806 -81.6339 12° North 522 601 33,000  Level Atlanta Center
07:34PM 36.2214 -81.5886 15° North 522 601 33,000  Level Atlanta Center
07:35PM 36.3625 -81.5483 13° North 522 601 33,000  Level Atlanta Center
07:36PM 36.5075 -81.5050 14° North 528 608 33,000  Level Atlanta Center
07:37PM 36.6486 -81.4617 14° North 518 596 33,000  Level Atlanta Center
07:39PM 36.9175 -81.3853 13° North 536 617 33,000  Level Indianapolis Center
07:40PM 37.0575 -81.3439 13° North 529 609 33,000  Level Indianapolis Center
07:41PM 37.1997 -81.3003 14° North 527 606 33,000  Level Indianapolis Center
07:42PM 37.3661 -81.2503 13° North 537 618 33,000  Level Indianapolis Center
07:43PM 37.5072 -81.2081 13° North 535 616 33,000  Level Indianapolis Center
07:44PM 37.6497 -81.1656 13° North 538 619 33,000  Level Indianapolis Center
07:45PM 37.7900 -81.1236 13° North 533 613 33,000  Level Indianapolis Center
07:46PM 37.9531 -81.1022 North 535 616 33,000  Level Indianapolis Center
07:47PM 38.1003 -81.0833 North 533 613 33,000  Level Indianapolis Center
07:48PM 38.2469 -81.0622 North 533 613 33,000  Level Indianapolis Center
07:49PM 38.3947 -81.0425 North 536 617 33,000  Level Indianapolis Center
07:50PM 38.5728 -81.0178 North 540 621 33,000  Level Indianapolis Center
07:51PM 38.7197 -80.9967 North 538 619 33,000  Level Indianapolis Center
07:52PM 38.8683 -80.9761 North 540 621 33,000  Level Indianapolis Center
07:53PM 39.0186 -80.9550 North 546 628 33,000  Level Indianapolis Center
07:55PM 39.1667 -80.9358 North 539 620 33,000  Level Indianapolis Center
07:56PM 39.3153 -80.9153 North 538 619 33,000  Level Indianapolis Center
07:57PM 39.4950 -80.8911 North 543 625 33,000  Level Indianapolis Center
07:58PM 39.6447 -80.8700 North 542 624 33,000  Level Indianapolis Center
07:59PM 39.7942 -80.8492 North 540 621 33,000  Level Indianapolis Center
07:59PM 39.8897 -80.8347 North 541 623 33,000  Level Cleveland Center
08:00PM 40.0378 -80.8136 North 541 623 33,000  Level Cleveland Center
08:01PM 40.1797 -80.7381 22° Northeast 541 623 33,000  Level Cleveland Center
08:02PM 40.3194 -80.6511 25° Northeast 541 623 33,000  Level Cleveland Center
08:03PM 40.4592 -80.5667 25° Northeast 541 623 33,000  Level Cleveland Center
08:04PM 40.5967 -80.4792 26° Northeast 541 623 33,000  Level Cleveland Center
08:05PM 40.7319 -80.3942 25° Northeast 541 623 33,000  Level Cleveland Center
08:06PM 40.8425 -80.3306 24° Northeast 546 628 33,000  Level Cleveland Center
08:07PM 40.9964 -80.2311 26° Northeast 546 628 33,000  Level Cleveland Center
08:08PM 41.1336 -80.1447 25° Northeast 546 628 33,000  Level Cleveland Center
08:09PM 41.2708 -80.0583 25° Northeast 546 628 33,000  Level Cleveland Center
08:10PM 41.4225 -79.9683 24° Northeast 541 623 33,000  Level Cleveland Center
08:11PM 41.5597 -79.8811 25° Northeast 541 623 33,000 -360 Level Cleveland Center
08:12PM 41.6864 -79.7964 27° Northeast 547 629 32,300 -1,500 Descending Cleveland Center
08:13PM 41.8233 -79.7083 26° Northeast 547 629 30,100 -1,800 Descending Cleveland Center
08:14PM 41.9683 -79.6169 25° Northeast 539 620 28,700 -1,500 Descending Cleveland Center
08:15PM 42.1031 -79.5281 26° Northeast 534 615 27,200 -1,380 Descending Cleveland Center
08:16PM 42.2336 -79.4447 25° Northeast 528 608 26,000 -900 Descending Cleveland Center
08:17PM 42.3578 -79.3636 26° Northeast 504 580 25,400 -1,200 Descending Cleveland Center
08:18PM 42.4739 -79.2883 26° Northeast 475 547 23,600 -2,040 Descending Cleveland Center
08:19PM 42.5967 -79.2858 North 441 507 21,400 -2,460 Descending Cleveland Center
08:20PM 42.7114 -79.2975 356° North 422 486 18,700 -2,580 Descending Cleveland Center
08:21PM 42.8242 -79.3067 357° North 410 472 16,300 -1,380 Descending Cleveland Center
08:22PM 42.9167 -79.3000 North 380 437 16,000 -420 Descending Toronto Center
08:23PM 43.0167 -79.3167 353° North 360 414 15,500 -1,020 Descending Toronto Center
08:24PM 43.1000 -79.3167 360° North 350 403 14,000 -1,680 Descending Toronto Center
08:25PM 43.2000 -79.3333 353° North 330 380 12,200 -1,020 Descending Toronto Center
08:26PM 43.2833 -79.3333 360° North 320 368 12,000 -180 Descending Toronto Center
08:27PM 43.3667 -79.3500 352° North 310 357 11,900 -900 Descending Toronto Center
08:28PM 43.4500 -79.4000 336° Northwest 300 345 10,200 -1,920 Descending Toronto Center
08:29PM 43.5167 -79.4500 331° Northwest 290 334 8,100 -2,400 Descending Toronto Center
08:30PM 43.5000 -79.5667 259° West 280 322 5,500 -1,560 Descending Toronto Center
08:31PM 43.4833 -79.6500 255° West 260 299 5,000 -780 Descending Toronto Center
08:32PM 43.4667 -79.7500 257° West 230 265 4,000 -900 Descending Toronto Center
08:33PM 43.5167 -79.8000 324° Northwest 210 242 3,300 -540 Descending Toronto Center
08:34PM 43.5667 -79.7667 26° Northeast 190 219 3,000 -480 Descending Toronto Center
08:35PM 43.6000 -79.7333 36° Northeast 160 184 2,400 -780 Descending Toronto Center
08:36PM 43.6333 -79.7000 36° Northeast 150 173 1,500 -780 Descending Toronto Center
08:37PM 43.6500 -79.6500 65° Northeast 130 150 900 -600 Descending Toronto Center